Time;durP1;ratioP1;P1;durP2;ratioP2;P2;SDS_P1;SDS_P2;PMS_P1;PMS_P2;Temp;Humidity;BMP_temperature;BMP_pressure;BME280_temperature;BME280_humidity;BME280_pressure;Samples;Min_cycle;Max_cycle;Signal;HPM_P1;HPM_P2
2021/03/18 00:00:40;;;;;;;17.47;9.90;;;1.70;82.40;;;;;;5054234;28;20547;-68
2021/03/18 00:03:06;;;;;;;16.77;10.03;;;1.70;82.60;;;;;;5054327;28;20037;-67
2021/03/18 00:05:32;;;;;;;17.17;9.30;;;1.80;82.70;;;;;;5054454;28;20037;-67
2021/03/18 00:07:59;;;;;;;18.60;10.20;;;1.80;82.70;;;;;;5036679;28;20040;-62
2021/03/18 00:10:25;;;;;;;17.53;10.87;;;1.90;82.70;;;;;;5052740;28;20412;-61
2021/03/18 00:12:50;;;;;;;18.47;11.27;;;1.90;82.80;;;;;;5054132;28;20036;-62
2021/03/18 00:15:16;;;;;;;16.67;10.00;;;2.00;83.00;;;;;;5052657;28;20037;-62
2021/03/18 00:17:42;;;;;;;18.10;10.20;;;2.10;83.20;;;;;;5035691;28;20048;-61
2021/03/18 00:20:14;;;;;;;20.83;10.80;;;2.10;83.20;;;;;;5053712;28;20397;-62
2021/03/18 00:22:42;;;;;;;16.50;9.97;;;2.20;83.20;;;;;;5053316;28;20378;-62
2021/03/18 00:25:11;;;;;;;16.43;9.83;;;2.30;83.20;;;;;;5053702;28;20048;-62
2021/03/18 00:27:38;;;;;;;18.47;10.23;;;2.30;83.20;;;;;;5068622;28;20497;-61
2021/03/18 00:30:05;;;;;;;18.17;11.90;;;2.30;83.10;;;;;;5035749;28;20037;-61
2021/03/18 00:32:31;;;;;;;19.07;12.27;;;2.40;83.10;;;;;;5053528;28;20061;-61
2021/03/18 00:34:57;;;;;;;21.97;12.83;;;2.40;83.20;;;;;;5052942;28;20114;-61
2021/03/18 00:37:22;;;;;;;18.93;12.20;;;2.40;83.20;;;;;;5053472;28;20055;-62
2021/03/18 00:39:48;;;;;;;17.10;11.17;;;2.40;83.20;;;;;;5053426;28;20033;-62
2021/03/18 00:42:14;;;;;;;19.20;12.13;;;2.40;83.20;;;;;;5053059;28;20090;-62
2021/03/18 00:44:40;;;;;;;19.70;11.70;;;2.40;83.20;;;;;;5053217;28;20039;-62
2021/03/18 00:47:05;;;;;;;19.63;11.83;;;2.40;83.20;;;;;;5052915;28;20503;-62
2021/03/18 00:49:31;;;;;;;18.43;11.57;;;2.40;83.20;;;;;;5053378;28;20043;-62
2021/03/18 00:51:57;;;;;;;21.80;10.67;;;2.40;83.20;;;;;;5052937;28;20053;-61
2021/03/18 00:54:23;;;;;;;19.33;11.87;;;2.30;83.20;;;;;;5034887;28;20083;-61
2021/03/18 00:56:49;;;;;;;22.80;11.50;;;2.30;83.30;;;;;;5035261;28;20064;-61
2021/03/18 00:59:14;;;;;;;22.30;11.87;;;2.30;83.50;;;;;;5034921;28;20067;-61
2021/03/18 01:01:40;;;;;;;18.77;11.77;;;2.30;83.70;;;;;;5052820;28;20112;-62
2021/03/18 01:04:06;;;;;;;17.77;11.83;;;2.30;83.70;;;;;;5035117;28;20442;-61
2021/03/18 01:06:33;;;;;;;16.47;11.23;;;2.30;83.80;;;;;;5066785;28;20124;-61
2021/03/18 01:09:02;;;;;;;19.83;11.77;;;2.30;83.90;;;;;;5052987;28;20115;-62
2021/03/18 01:11:31;;;;;;;19.67;12.27;;;2.20;83.80;;;;;;5067743;28;20045;-61
2021/03/18 01:13:59;;;;;;;19.17;12.30;;;2.20;83.90;;;;;;5054351;28;20119;-62
2021/03/18 01:16:34;;;;;;;19.93;12.53;;;2.20;83.80;;;;;;5056123;28;20457;-62
2021/03/18 01:19:03;;;;;;;20.10;12.50;;;2.20;83.90;;;;;;5052509;28;20041;-61
2021/03/18 01:21:41;;;;;;;20.20;13.03;;;2.10;83.90;;;;;;5052429;28;20033;-61
2021/03/18 01:24:08;;;;;;;21.93;13.50;;;2.10;84.00;;;;;;5052197;28;20041;-61
2021/03/18 01:26:34;;;;;;;21.57;13.27;;;2.10;84.10;;;;;;5068049;28;20037;-62
2021/03/18 01:29:01;;;;;;;25.33;14.93;;;2.10;84.50;;;;;;5034340;28;20044;-61
2021/03/18 01:31:27;;;;;;;21.33;13.47;;;2.10;84.50;;;;;;5052464;28;20120;-61
2021/03/18 01:33:52;;;;;;;21.37;13.60;;;2.10;84.50;;;;;;5052593;28;20056;-62
2021/03/18 01:36:18;;;;;;;28.73;16.83;;;2.10;84.50;;;;;;5051849;28;20541;-61
2021/03/18 01:38:45;;;;;;;24.33;15.57;;;2.10;84.60;;;;;;5052496;28;20558;-61
2021/03/18 01:41:11;;;;;;;22.73;14.60;;;2.10;84.60;;;;;;5051607;28;20386;-63
2021/03/18 01:43:37;;;;;;;29.30;18.10;;;2.10;84.60;;;;;;5052122;28;20060;-61
2021/03/18 01:46:04;;;;;;;35.37;19.80;;;2.10;85.10;;;;;;5034464;28;20443;-62
2021/03/18 01:48:29;;;;;;;39.33;21.40;;;2.20;85.40;;;;;;5033953;28;20397;-62
2021/03/18 01:50:57;;;;;;;36.07;20.90;;;2.20;85.70;;;;;;5034038;28;20037;-61
2021/03/18 01:53:24;;;;;;;35.30;20.30;;;2.30;85.90;;;;;;5033524;28;20033;-62
2021/03/18 01:55:52;;;;;;;33.60;20.30;;;2.30;86.00;;;;;;5052143;28;20044;-61
2021/03/18 01:58:19;;;;;;;51.03;22.90;;;2.40;86.20;;;;;;5051894;28;20036;-61
2021/03/18 02:00:47;;;;;;;47.80;22.50;;;2.40;86.40;;;;;;5051261;28;20055;-61
2021/03/18 02:03:13;;;;;;;44.17;23.70;;;2.50;86.60;;;;;;5051781;28;20037;-62
2021/03/18 02:05:41;;;;;;;45.17;23.20;;;2.60;86.70;;;;;;5051335;28;20098;-67
2021/03/18 02:08:07;;;;;;;40.60;23.23;;;2.60;86.60;;;;;;5051953;28;20088;-67
2021/03/18 02:10:35;;;;;;;42.63;22.27;;;2.70;86.50;;;;;;5051646;28;20040;-68
2021/03/18 02:13:04;;;;;;;46.90;23.33;;;2.70;86.50;;;;;;5033215;28;20539;-68
2021/03/18 02:15:43;;;;;;;45.40;24.03;;;2.70;86.50;;;;;;5033880;28;20067;-68
2021/03/18 02:18:20;;;;;;;44.50;23.27;;;2.80;86.60;;;;;;5032922;28;20036;-68
2021/03/18 02:20:58;;;;;;;39.43;22.23;;;2.80;86.60;;;;;;5049960;28;20041;-68
2021/03/18 02:23:38;;;;;;;38.83;23.03;;;2.80;86.80;;;;;;5051201;28;20037;-68
2021/03/18 02:26:09;;;;;;;38.22;22.13;;;2.80;86.80;;;;;;5051208;28;20061;-67
2021/03/18 02:29:01;;;;;;;38.50;21.55;;;2.80;86.80;;;;;;5051480;28;20041;-68
2021/03/18 02:31:49;;;;;;;39.63;20.87;;;2.80;86.60;;;;;;5050826;28;20041;-68
2021/03/18 02:34:27;;;;;;;41.40;20.20;;;2.80;86.40;;;;;;5050866;28;20508;-67
2021/03/18 02:37:02;;;;;;;36.90;20.47;;;2.70;86.00;;;;;;5051305;28;20124;-68
2021/03/18 02:39:33;;;;;;;50.03;19.80;;;2.60;86.60;;;;;;5050643;28;20098;-68
2021/03/18 02:42:04;;;;;;;53.70;21.38;;;2.60;86.60;;;;;;5050998;28;20063;-67
2021/03/18 02:44:33;;;;;;;36.57;19.27;;;2.50;86.60;;;;;;5033446;28;20048;-59
2021/03/18 02:47:05;;;;;;;38.67;20.77;;;2.50;87.00;;;;;;5066518;28;20033;-58
2021/03/18 02:49:35;;;;;;;37.17;19.57;;;2.50;87.40;;;;;;5050699;28;20041;-58
2021/03/18 02:52:03;;;;;;;40.72;18.83;;;2.50;87.50;;;;;;5050868;28;20393;-58
2021/03/18 02:54:29;;;;;;;41.57;18.60;;;2.50;87.50;;;;;;5050991;28;20037;-58
2021/03/18 02:57:00;;;;;;;59.33;19.20;;;2.50;87.30;;;;;;5050609;28;20033;-61
2021/03/18 02:59:31;;;;;;;46.22;17.83;;;2.50;87.40;;;;;;5050989;28;20408;-61
2021/03/18 03:02:00;;;;;;;42.17;16.20;;;2.50;87.20;;;;;;5050567;28;20377;-61
2021/03/18 03:04:28;;;;;;;77.83;16.23;;;2.50;86.80;;;;;;5033124;28;20033;-61
2021/03/18 03:06:54;;;;;;;34.33;15.37;;;2.40;86.30;;;;;;5065861;28;20041;-61
2021/03/18 03:09:21;;;;;;;44.10;14.57;;;2.30;87.00;;;;;;5033003;28;20111;-61
2021/03/18 03:11:47;;;;;;;32.20;13.07;;;2.20;87.10;;;;;;5050657;28;20455;-61
2021/03/18 03:14:14;;;;;;;62.10;13.83;;;2.10;87.50;;;;;;5050434;28;20044;-68
2021/03/18 03:16:40;;;;;;;26.77;13.87;;;2.10;87.70;;;;;;5051008;28;20032;-68
2021/03/18 03:19:07;;;;;;;26.33;13.60;;;2.10;88.00;;;;;;5050286;28;20451;-68
2021/03/18 03:21:33;;;;;;;36.03;14.33;;;2.10;88.20;;;;;;5032664;28;20132;-68
2021/03/18 03:24:00;;;;;;;41.03;13.80;;;2.10;88.30;;;;;;5050931;28;20037;-68
2021/03/18 03:26:26;;;;;;;30.90;12.97;;;2.20;88.10;;;;;;5050228;28;20413;-68
2021/03/18 03:28:53;;;;;;;30.93;14.20;;;2.10;87.80;;;;;;5050725;28;20032;-68
2021/03/18 03:31:20;;;;;;;30.70;12.40;;;2.10;88.20;;;;;;5053504;28;20044;-67
2021/03/18 03:33:46;;;;;;;29.73;12.87;;;2.10;88.00;;;;;;5036843;28;20075;-62
2021/03/18 03:36:12;;;;;;;37.23;12.57;;;2.10;88.10;;;;;;5054631;28;20044;-62
2021/03/18 03:38:38;;;;;;;44.37;14.40;;;2.10;88.50;;;;;;5054131;28;20045;-62
2021/03/18 03:41:05;;;;;;;47.00;13.10;;;2.20;88.70;;;;;;5054328;28;20051;-62
2021/03/18 03:43:32;;;;;;;70.03;14.27;;;2.20;88.60;;;;;;5053934;28;20037;-61
2021/03/18 03:45:58;;;;;;;39.53;13.33;;;2.20;87.90;;;;;;5036601;28;20037;-61
2021/03/18 03:48:24;;;;;;;58.33;13.57;;;2.10;88.00;;;;;;5054329;28;20033;-62
2021/03/18 03:50:53;;;;;;;114.83;16.40;;;2.10;88.50;;;;;;5035850;28;20051;-62
2021/03/18 03:53:27;;;;;;;57.50;14.27;;;2.10;89.20;;;;;;5054254;28;20120;-62
2021/03/18 03:56:00;;;;;;;38.90;13.80;;;2.00;88.40;;;;;;5053903;28;20045;-62
2021/03/18 03:58:35;;;;;;;41.53;14.90;;;2.00;88.20;;;;;;5054255;28;20061;-62
2021/03/18 04:01:04;;;;;;;34.10;15.77;;;2.00;89.30;;;;;;5053485;28;20041;-63
2021/03/18 04:03:33;;;;;;;79.83;15.90;;;2.00;89.60;;;;;;5054065;28;20041;-62
2021/03/18 04:06:00;;;;;;;76.33;15.57;;;2.10;88.90;;;;;;5035681;28;20040;-62
2021/03/18 04:08:28;;;;;;;55.73;16.07;;;2.10;89.20;;;;;;5054159;28;20188;-62
2021/03/18 04:10:56;;;;;;;62.73;17.30;;;2.10;89.00;;;;;;5053297;28;20041;-63
2021/03/18 04:13:24;;;;;;;57.93;16.57;;;2.10;89.50;;;;;;5053785;28;20041;-62
2021/03/18 04:15:51;;;;;;;80.50;17.47;;;2.10;89.60;;;;;;5053941;28;20493;-62
2021/03/18 04:18:19;;;;;;;83.40;17.00;;;2.10;89.40;;;;;;5035545;28;20402;-62
2021/03/18 04:20:46;;;;;;;70.30;16.63;;;2.00;89.70;;;;;;5053549;28;20033;-62
2021/03/18 04:23:14;;;;;;;48.73;14.43;;;2.00;89.40;;;;;;5053740;28;20162;-62
2021/03/18 04:25:41;;;;;;;45.43;15.53;;;1.90;89.40;;;;;;5053615;28;20120;-62
2021/03/18 04:28:09;;;;;;;92.07;15.17;;;1.90;89.50;;;;;;5053642;28;20033;-62
2021/03/18 04:30:38;;;;;;;55.60;15.83;;;1.90;90.00;;;;;;5053038;28;20056;-61
2021/03/18 04:33:04;;;;;;;64.83;15.40;;;1.90;90.00;;;;;;5053643;28;20036;-62
2021/03/18 04:35:31;;;;;;;81.07;16.30;;;1.90;90.10;;;;;;5035325;28;20033;-62
2021/03/18 04:37:59;;;;;;;50.07;15.30;;;1.90;90.30;;;;;;5053471;28;20409;-62
2021/03/18 04:40:25;;;;;;;116.53;16.17;;;1.90;90.30;;;;;;5052991;28;20095;-62
2021/03/18 04:42:52;;;;;;;45.17;15.10;;;2.00;90.30;;;;;;5052772;28;20497;-61
2021/03/18 04:45:21;;;;;;;35.10;13.60;;;2.00;90.20;;;;;;5053494;28;20043;-62
2021/03/18 04:47:49;;;;;;;35.00;14.00;;;2.00;90.10;;;;;;5052885;28;20115;-62
2021/03/18 04:50:19;;;;;;;46.47;14.10;;;2.00;90.30;;;;;;5053231;28;20485;-62
2021/03/18 04:52:45;;;;;;;58.92;13.75;;;2.00;90.30;;;;;;5052692;28;20032;-62
2021/03/18 04:55:12;;;;;;;40.37;13.13;;;2.10;90.40;;;;;;5053138;28;20522;-62
2021/03/18 04:57:43;;;;;;;44.90;13.20;;;2.10;90.40;;;;;;5035335;28;20067;-62
2021/03/18 05:00:10;;;;;;;34.03;13.17;;;2.10;90.40;;;;;;5034804;28;20095;-62
2021/03/18 05:02:39;;;;;;;54.23;13.43;;;2.10;90.40;;;;;;5052973;28;20066;-62
2021/03/18 05:05:08;;;;;;;40.00;12.97;;;2.20;90.60;;;;;;5034667;28;20504;-62
2021/03/18 05:07:35;;;;;;;46.90;13.20;;;2.20;90.50;;;;;;5052819;28;20486;-62
2021/03/18 05:10:01;;;;;;;68.07;13.93;;;2.20;90.50;;;;;;5068013;28;20052;-61
2021/03/18 05:12:27;;;;;;;68.07;14.37;;;2.20;90.50;;;;;;5051352;28;20128;-62
2021/03/18 05:14:53;;;;;;;31.97;12.37;;;2.20;90.50;;;;;;5052968;28;20064;-62
2021/03/18 05:17:19;;;;;;;34.03;13.50;;;2.20;90.70;;;;;;5052301;28;20033;-62
2021/03/18 05:19:45;;;;;;;40.30;13.00;;;2.20;90.80;;;;;;5052912;28;20489;-64
2021/03/18 05:22:11;;;;;;;47.77;13.30;;;2.30;90.80;;;;;;5051912;28;20516;-62
2021/03/18 05:24:40;;;;;;;35.47;14.13;;;2.30;90.60;;;;;;5052592;28;20037;-62
2021/03/18 05:27:06;;;;;;;34.93;13.53;;;2.30;90.60;;;;;;5052658;28;20401;-62
2021/03/18 05:29:32;;;;;;;51.07;12.50;;;2.30;90.80;;;;;;5034333;28;20052;-62
2021/03/18 05:31:58;;;;;;;49.73;13.20;;;2.40;90.70;;;;;;5052448;28;20037;-62
2021/03/18 05:34:25;;;;;;;47.97;13.43;;;2.40;90.60;;;;;;5052355;28;20090;-62
2021/03/18 05:36:50;;;;;;;47.00;13.00;;;2.40;90.70;;;;;;5052041;28;20059;-62
2021/03/18 05:39:16;;;;;;;34.93;13.27;;;2.40;90.80;;;;;;5052495;28;20417;-62
2021/03/18 05:41:43;;;;;;;76.50;14.07;;;2.40;90.80;;;;;;5061699;28;20454;-62
2021/03/18 05:44:09;;;;;;;46.47;13.13;;;2.50;90.80;;;;;;5045008;28;20102;-63
2021/03/18 05:46:36;;;;;;;64.13;15.13;;;2.50;90.80;;;;;;5043727;28;20045;-62
2021/03/18 05:49:02;;;;;;;45.63;13.70;;;2.50;90.80;;;;;;5060842;28;20044;-62
2021/03/18 05:51:32;;;;;;;56.93;12.97;;;2.50;90.70;;;;;;5062287;28;20040;-62
2021/03/18 05:54:00;;;;;;;43.50;14.07;;;2.50;90.80;;;;;;5060637;28;20424;-62
2021/03/18 05:56:25;;;;;;;46.03;13.40;;;2.50;90.90;;;;;;5060724;28;20396;-62
2021/03/18 05:58:52;;;;;;;41.20;13.97;;;2.50;91.10;;;;;;5062610;28;20115;-62
2021/03/18 06:01:19;;;;;;;61.07;14.03;;;2.60;91.10;;;;;;5060770;28;20041;-62
2021/03/18 06:03:46;;;;;;;51.57;14.00;;;2.60;91.20;;;;;;5063474;28;20037;-62
2021/03/18 06:06:14;;;;;;;65.93;14.13;;;2.70;91.10;;;;;;5060221;28;20536;-67
2021/03/18 06:08:40;;;;;;;50.47;13.93;;;2.70;91.00;;;;;;5071821;28;20457;-61
2021/03/18 06:11:07;;;;;;;52.77;13.50;;;2.70;91.00;;;;;;5070245;28;20094;-62
2021/03/18 06:13:34;;;;;;;38.63;12.90;;;2.70;91.20;;;;;;5039407;28;20036;-63
2021/03/18 06:16:05;;;;;;;40.23;12.47;;;2.80;91.40;;;;;;5062214;28;20044;-62
2021/03/18 06:18:33;;;;;;;63.47;13.90;;;2.90;91.50;;;;;;5048833;28;20055;-62
2021/03/18 06:20:59;;;;;;;47.70;13.63;;;3.00;91.50;;;;;;5071400;28;20032;-62
2021/03/18 06:23:27;;;;;;;47.23;13.90;;;3.10;91.40;;;;;;5071020;28;20442;-62
2021/03/18 06:25:53;;;;;;;66.17;14.13;;;3.10;91.00;;;;;;5071421;28;20397;-62
2021/03/18 06:28:29;;;;;;;33.00;13.17;;;3.10;91.10;;;;;;5064234;28;20029;-62
2021/03/18 06:31:15;;;;;;;53.27;13.83;;;3.10;91.20;;;;;;5050813;28;20036;-62
2021/03/18 06:33:42;;;;;;;36.30;13.40;;;3.20;91.30;;;;;;5050948;28;20100;-62
2021/03/18 06:36:29;;;;;;;53.27;13.70;;;3.20;91.30;;;;;;5051307;28;20436;-62
2021/03/18 06:39:17;;;;;;;46.87;14.20;;;3.20;91.50;;;;;;5033294;28;20497;-62
2021/03/18 06:41:45;;;;;;;45.70;13.70;;;3.30;91.10;;;;;;5050509;28;20048;-62
2021/03/18 06:44:20;;;;;;;37.13;14.20;;;3.20;91.00;;;;;;5051132;28;20045;-62
2021/03/18 06:46:46;;;;;;;26.60;13.10;;;3.30;91.30;;;;;;5051191;28;20036;-62
2021/03/18 06:49:14;;;;;;;26.70;12.40;;;3.30;91.50;;;;;;5050827;28;20047;-62
2021/03/18 06:51:40;;;;;;;25.63;11.80;;;3.40;91.60;;;;;;5032863;28;20041;-62
2021/03/18 06:54:18;;;;;;;25.50;11.53;;;3.50;91.50;;;;;;5050559;28;20041;-62
2021/03/18 06:56:59;;;;;;;35.93;13.50;;;3.60;91.60;;;;;;5033313;28;20041;-62
2021/03/18 06:59:28;;;;;;;39.60;12.07;;;3.70;91.50;;;;;;5050584;28;20045;-62
2021/03/18 07:02:12;;;;;;;24.73;11.33;;;3.70;91.20;;;;;;5050691;28;20036;-62
2021/03/18 07:04:43;;;;;;;26.63;12.27;;;3.70;91.00;;;;;;5050428;28;20044;-62
2021/03/18 07:07:10;;;;;;;33.45;11.70;;;3.70;91.50;;;;;;5033168;28;20041;-62
2021/03/18 07:09:38;;;;;;;32.43;12.50;;;3.90;91.70;;;;;;5050571;28;20082;-62
2021/03/18 07:12:09;;;;;;;27.80;12.00;;;4.00;91.50;;;;;;5050598;28;20037;-62
2021/03/18 07:14:45;;;;;;;23.73;11.43;;;4.00;91.40;;;;;;5032505;28;20045;-62
2021/03/18 07:17:29;;;;;;;26.40;11.13;;;4.10;91.20;;;;;;5050950;28;20041;-62
2021/03/18 07:20:18;;;;;;;29.23;11.67;;;4.10;90.90;;;;;;5050416;28;20041;-62
2021/03/18 07:22:56;;;;;;;42.90;12.50;;;4.10;90.80;;;;;;5032264;28;20401;-62
2021/03/18 07:25:29;;;;;;;25.93;12.40;;;4.10;90.80;;;;;;5050992;28;20106;-62
2021/03/18 07:28:02;;;;;;;29.63;12.77;;;4.10;91.00;;;;;;5050369;28;20382;-62
2021/03/18 07:30:29;;;;;;;24.97;11.93;;;4.10;91.30;;;;;;5050858;28;20624;-59
2021/03/18 07:32:56;;;;;;;31.70;12.23;;;4.30;91.50;;;;;;5050013;28;20405;-59
2021/03/18 07:35:23;;;;;;;32.50;12.77;;;4.40;91.30;;;;;;5032816;28;20033;-60
2021/03/18 07:37:49;;;;;;;31.37;12.97;;;4.40;91.00;;;;;;5050091;28;20037;-59
2021/03/18 07:40:15;;;;;;;28.20;13.47;;;4.40;91.10;;;;;;5032131;28;20033;-60
2021/03/18 07:42:42;;;;;;;50.60;13.53;;;4.50;91.20;;;;;;5050573;28;20043;-59
2021/03/18 07:45:09;;;;;;;28.07;12.90;;;4.50;91.00;;;;;;5049879;28;20041;-59
2021/03/18 07:47:36;;;;;;;36.93;13.60;;;4.60;90.90;;;;;;5066069;28;20029;-59
2021/03/18 07:50:08;;;;;;;28.80;12.60;;;4.50;90.60;;;;;;5050514;28;20037;-59
2021/03/18 07:52:36;;;;;;;30.40;13.40;;;4.60;90.80;;;;;;5050346;28;20108;-59
2021/03/18 07:55:03;;;;;;;27.23;13.33;;;4.60;90.80;;;;;;5065534;28;20102;-59
2021/03/18 07:57:40;;;;;;;26.10;12.33;;;4.60;90.80;;;;;;5049778;28;20485;-59
2021/03/18 08:00:15;;;;;;;28.83;13.20;;;4.60;90.80;;;;;;5050381;28;20033;-59
2021/03/18 08:02:41;;;;;;;28.53;13.43;;;4.60;90.80;;;;;;5049804;28;20033;-59
2021/03/18 08:05:07;;;;;;;27.47;12.57;;;4.60;90.50;;;;;;5065820;28;20029;-59
2021/03/18 08:07:59;;;;;;;24.57;11.77;;;4.60;90.60;;;;;;5049983;28;20386;-59
2021/03/18 08:10:28;;;;;;;27.90;13.30;;;4.60;90.50;;;;;;5030588;28;20036;-59
2021/03/18 08:12:59;;;;;;;27.10;13.80;;;4.50;90.40;;;;;;5048293;28;20091;-58
2021/03/18 08:15:40;;;;;;;28.80;13.32;;;4.50;90.50;;;;;;5032664;28;20044;-59
2021/03/18 08:18:14;;;;;;;28.77;13.80;;;4.40;90.50;;;;;;5053740;28;20128;-59
2021/03/18 08:20:40;;;;;;;30.33;13.30;;;4.40;90.50;;;;;;5053633;28;20041;-59
2021/03/18 08:23:24;;;;;;;25.63;13.00;;;4.40;90.40;;;;;;5053302;28;20025;-58
2021/03/18 08:25:51;;;;;;;29.30;13.33;;;4.40;90.60;;;;;;5053979;28;20037;-59
2021/03/18 08:28:38;;;;;;;28.20;12.67;;;4.50;91.10;;;;;;5053142;28;20090;-59
2021/03/18 08:31:13;;;;;;;24.87;11.97;;;4.70;91.30;;;;;;5051565;28;20467;-59
2021/03/18 08:33:51;;;;;;;28.50;12.43;;;4.90;90.90;;;;;;5068950;28;20110;-59
2021/03/18 08:36:40;;;;;;;25.70;12.67;;;4.90;90.70;;;;;;5035090;28;20040;-60
2021/03/18 08:39:10;;;;;;;25.00;12.50;;;5.00;90.70;;;;;;5053540;28;20052;-59
2021/03/18 08:41:47;;;;;;;24.73;12.20;;;5.10;90.80;;;;;;5052806;28;20057;-59
2021/03/18 08:44:23;;;;;;;25.17;12.03;;;5.20;90.80;;;;;;5053988;28;20044;-69
2021/03/18 08:46:50;;;;;;;24.73;12.03;;;5.30;90.50;;;;;;5053930;28;20040;-69
2021/03/18 08:49:25;;;;;;;24.90;12.90;;;5.30;90.70;;;;;;5054339;28;20037;-68
2021/03/18 08:51:53;;;;;;;22.77;11.63;;;5.50;90.70;;;;;;5053351;28;20045;-69
2021/03/18 08:54:37;;;;;;;20.37;10.50;;;5.60;90.90;;;;;;5070271;28;20041;-69
2021/03/18 08:57:04;;;;;;;20.83;10.13;;;5.70;90.60;;;;;;5071801;28;20401;-70
2021/03/18 08:59:31;;;;;;;20.73;9.70;;;5.80;90.60;;;;;;5054607;28;20033;-68
2021/03/18 09:02:08;;;;;;;17.07;8.70;;;6.00;90.60;;;;;;5055007;28;20055;-68
2021/03/18 09:04:42;;;;;;;17.30;9.10;;;6.20;90.60;;;;;;5054865;28;20056;-69
2021/03/18 09:07:09;;;;;;;19.17;9.30;;;6.30;90.20;;;;;;5055559;28;20124;-70
2021/03/18 09:09:36;;;;;;;20.47;9.40;;;6.50;90.40;;;;;;5069993;28;20374;-73
2021/03/18 09:12:03;;;;;;;16.03;8.43;;;6.70;90.40;;;;;;5036472;28;20120;-70
2021/03/18 09:14:30;;;;;;;16.83;8.50;;;7.00;90.20;;;;;;5069143;28;20061;-68
2021/03/18 09:17:09;;;;;;;16.70;8.63;;;7.00;88.80;;;;;;5052312;28;20039;-68
2021/03/18 09:19:35;;;;;;;18.73;9.30;;;7.00;87.20;;;;;;5050281;28;20041;-68
2021/03/18 09:22:02;;;;;;;18.60;9.20;;;6.90;88.20;;;;;;5034056;28;20068;-68
2021/03/18 09:24:36;;;;;;;19.87;9.20;;;7.00;88.30;;;;;;5033543;28;20064;-69
2021/03/18 09:27:07;;;;;;;16.50;8.93;;;7.00;87.80;;;;;;5031289;28;20037;-72
2021/03/18 09:29:34;;;;;;;16.67;9.03;;;7.00;87.30;;;;;;5033044;28;20075;-68
2021/03/18 09:32:04;;;;;;;17.10;9.03;;;7.00;87.80;;;;;;5051489;28;20516;-68
2021/03/18 09:34:34;;;;;;;17.98;8.35;;;7.20;87.70;;;;;;5051864;28;20043;-68
2021/03/18 09:37:00;;;;;;;17.15;8.23;;;7.30;87.30;;;;;;5051462;28;20040;-69
2021/03/18 09:39:26;;;;;;;14.47;8.10;;;7.40;87.10;;;;;;5033679;28;20087;-69
2021/03/18 09:41:58;;;;;;;15.67;8.43;;;7.50;86.60;;;;;;5033067;28;20382;-68
2021/03/18 09:44:29;;;;;;;16.77;8.20;;;7.50;85.60;;;;;;5051931;28;20040;-70
2021/03/18 09:46:55;;;;;;;;;;;7.40;85.10;;;;;;5066577;28;20636;-70
2021/03/18 09:49:33;;;;;;;14.97;8.37;;;7.50;85.30;;;;;;5074559;28;19916;-70
2021/03/18 09:52:01;;;;;;;15.83;7.93;;;7.50;84.70;;;;;;5056233;28;20563;-69
2021/03/18 09:54:29;;;;;;;17.53;8.30;;;7.30;83.60;;;;;;5074902;28;20071;-70
2021/03/18 09:56:59;;;;;;;15.37;8.23;;;7.40;84.70;;;;;;5074694;28;20044;-70
2021/03/18 09:59:26;;;;;;;16.08;8.02;;;7.50;85.00;;;;;;5055385;28;20047;-69
2021/03/18 10:01:52;;;;;;;15.77;8.23;;;7.70;85.10;;;;;;5052945;28;20390;-70
2021/03/18 10:04:20;;;;;;;14.37;8.23;;;7.90;84.50;;;;;;5070816;28;20056;-68
2021/03/18 10:06:47;;;;;;;15.87;7.53;;;8.10;84.30;;;;;;5070902;28;20083;-69
2021/03/18 10:09:33;;;;;;;14.13;7.73;;;8.30;83.80;;;;;;5053315;28;20078;-69
2021/03/18 10:12:20;;;;;;;16.43;8.17;;;8.30;82.60;;;;;;5031480;28;20037;-69
2021/03/18 10:14:53;;;;;;;12.63;6.90;;;8.40;82.10;;;;;;5050537;28;20128;-68
2021/03/18 10:17:26;;;;;;;14.93;7.13;;;8.30;81.50;;;;;;5052517;28;20040;-69
2021/03/18 10:19:59;;;;;;;15.70;8.57;;;8.20;80.40;;;;;;5051279;28;20067;-69
2021/03/18 10:22:38;;;;;;;18.83;8.90;;;8.00;79.40;;;;;;5051805;28;20116;-69
2021/03/18 10:25:08;;;;;;;14.07;7.73;;;7.70;79.20;;;;;;5033603;28;20030;-68
2021/03/18 10:27:41;;;;;;;16.25;6.85;;;7.50;79.50;;;;;;5033989;28;20133;-70
2021/03/18 10:30:17;;;;;;;12.43;7.13;;;7.40;79.70;;;;;;5033580;28;20508;-68
2021/03/18 10:33:04;;;;;;;14.93;7.63;;;7.30;79.70;;;;;;5052055;28;20043;-68
2021/03/18 10:35:31;;;;;;;11.90;6.77;;;7.30;80.50;;;;;;5052190;28;20060;-71
2021/03/18 10:37:58;;;;;;;13.23;6.63;;;7.30;80.90;;;;;;5034599;28;20067;-71
2021/03/18 10:40:26;;;;;;;14.17;6.90;;;7.50;80.90;;;;;;5051490;28;20473;-70
2021/03/18 10:42:59;;;;;;;12.43;6.70;;;8.00;82.60;;;;;;5052263;28;20520;-71
2021/03/18 10:45:29;;;;;;;10.13;5.63;;;9.10;82.90;;;;;;5051216;28;20060;-68
2021/03/18 10:48:17;;;;;;;12.27;5.90;;;10.40;82.20;;;;;;5016092;28;20068;-69
2021/03/18 10:50:43;;;;;;;9.43;5.28;;;11.60;79.50;;;;;;5032019;28;20440;-69
2021/03/18 10:53:10;;;;;;;10.52;5.30;;;12.30;77.20;;;;;;5050368;28;20037;-70
2021/03/18 10:55:40;;;;;;;9.15;5.32;;;13.10;75.60;;;;;;5049535;28;20124;-69
2021/03/18 10:58:09;;;;;;;10.45;5.63;;;13.30;71.90;;;;;;5015543;28;20109;-70
2021/03/18 11:00:40;;;;;;;10.18;5.35;;;13.90;72.70;;;;;;5029861;28;20041;-69
2021/03/18 11:03:16;;;;;;;10.00;5.20;;;14.60;70.80;;;;;;5047855;28;20037;-70
2021/03/18 11:05:48;;;;;;;10.00;5.43;;;14.90;68.70;;;;;;5031263;28;20390;-69
2021/03/18 11:08:31;;;;;;;10.15;5.53;;;15.60;67.80;;;;;;5049922;28;20040;-69
2021/03/18 11:11:00;;;;;;;10.48;5.10;;;16.30;65.90;;;;;;5049162;28;20045;-69
2021/03/18 11:13:29;;;;;;;9.43;4.80;;;16.20;62.20;;;;;;5049781;28;20033;-70
2021/03/18 11:15:58;;;;;;;9.95;5.03;;;16.00;63.20;;;;;;5032452;28;20124;-68
2021/03/18 11:18:39;;;;;;;9.18;5.03;;;16.00;59.90;;;;;;5031892;28;20124;-70
2021/03/18 11:21:24;;;;;;;9.60;4.60;;;15.40;59.40;;;;;;5049344;28;20037;-69
2021/03/18 11:23:54;;;;;;;9.02;4.90;;;15.50;60.20;;;;;;5049826;28;20037;-69
2021/03/18 11:26:23;;;;;;;7.60;4.50;;;15.70;59.30;;;;;;5038711;28;20554;-69
2021/03/18 11:29:00;;;;;;;9.80;4.70;;;15.80;59.20;;;;;;5069800;28;20037;-69
2021/03/18 11:31:28;;;;;;;11.00;5.20;;;16.00;58.70;;;;;;5069166;28;20550;-70
2021/03/18 11:33:55;;;;;;;10.95;5.00;;;15.70;56.70;;;;;;5051864;28;20119;-69
2021/03/18 11:36:22;;;;;;;10.43;5.28;;;15.20;55.20;;;;;;5051258;28;20101;-69
2021/03/18 11:38:49;;;;;;;8.73;4.93;;;14.80;56.20;;;;;;5069848;28;20043;-70
2021/03/18 11:41:15;;;;;;;8.77;5.43;;;14.70;56.00;;;;;;5069793;28;20498;-70
2021/03/18 11:43:41;;;;;;;9.80;5.40;;;14.50;54.80;;;;;;5067390;28;20048;-69
2021/03/18 11:46:07;;;;;;;11.52;5.75;;;14.20;55.00;;;;;;5049842;28;20068;-69
2021/03/18 11:48:37;;;;;;;9.18;5.50;;;13.90;54.40;;;;;;5031821;28;20037;-68
2021/03/18 11:51:03;;;;;;;8.40;5.50;;;13.30;53.60;;;;;;5033226;28;20037;-71
2021/03/18 11:53:29;;;;;;;13.13;6.55;;;12.60;53.50;;;;;;5036966;28;20076;-70
2021/03/18 11:55:55;;;;;;;11.82;5.88;;;12.00;54.40;;;;;;5036473;28;20485;-65
2021/03/18 11:58:21;;;;;;;10.98;6.00;;;11.40;54.10;;;;;;5036026;28;20047;-65
2021/03/18 12:00:46;;;;;;;11.80;6.97;;;10.90;55.40;;;;;;5052951;28;20144;-65
2021/03/18 12:03:13;;;;;;;11.57;6.85;;;10.50;56.20;;;;;;5035653;28;20045;-65
2021/03/18 12:05:42;;;;;;;11.48;6.72;;;10.10;56.40;;;;;;5053547;28;20033;-65
2021/03/18 12:08:08;;;;;;;11.13;7.20;;;9.80;57.20;;;;;;5018636;28;20557;-65
2021/03/18 12:10:34;;;;;;;11.82;6.25;;;9.60;57.90;;;;;;5053047;28;20032;-65
2021/03/18 12:13:00;;;;;;;10.48;5.45;;;9.40;58.30;;;;;;5052868;28;20375;-65
2021/03/18 12:15:26;;;;;;;9.00;5.05;;;9.30;58.80;;;;;;5053277;28;20472;-65
2021/03/18 12:17:51;;;;;;;10.10;5.18;;;9.10;59.10;;;;;;5035230;28;20049;-66
2021/03/18 12:20:21;;;;;;;10.07;5.35;;;9.00;59.20;;;;;;5052488;28;20036;-65
2021/03/18 12:22:48;;;;;;;12.03;6.00;;;8.90;59.60;;;;;;5052895;28;20068;-66
2021/03/18 12:25:17;;;;;;;10.93;5.50;;;8.70;59.90;;;;;;5034765;28;20040;-64
2021/03/18 12:27:43;;;;;;;9.37;5.33;;;8.70;60.60;;;;;;5035332;28;20452;-65
2021/03/18 12:30:12;;;;;;;11.73;5.73;;;8.60;60.80;;;;;;5053004;28;20029;-65
2021/03/18 12:32:38;;;;;;;11.03;5.60;;;8.60;61.10;;;;;;5034736;28;20037;-65
2021/03/18 12:35:05;;;;;;;10.43;5.63;;;8.50;61.40;;;;;;5052809;28;20497;-65
2021/03/18 12:37:31;;;;;;;10.33;6.10;;;8.50;61.50;;;;;;5051920;28;20040;-63
2021/03/18 12:39:57;;;;;;;13.20;6.23;;;8.40;61.70;;;;;;5052791;28;20417;-65
2021/03/18 12:42:23;;;;;;;11.30;6.20;;;8.40;61.90;;;;;;5034441;28;20044;-65
2021/03/18 12:44:49;;;;;;;12.17;5.47;;;8.30;62.20;;;;;;5051999;28;20048;-58
2021/03/18 12:47:16;;;;;;;9.63;5.20;;;8.20;62.50;;;;;;5034673;28;20033;-58
2021/03/18 12:49:42;;;;;;;8.17;4.73;;;8.20;62.90;;;;;;5052017;28;20093;-58
2021/03/18 12:52:07;;;;;;;11.57;5.07;;;8.20;63.00;;;;;;5052344;28;20036;-58